createdAt,value
2018-08-30T00:00:22.912Z,23.60
2018-08-30T00:00:54.807Z,23.50
2018-08-30T00:01:26.703Z,23.50
2018-08-30T00:01:58.722Z,23.50
2018-08-30T00:02:30.563Z,23.50
2018-08-30T00:03:02.657Z,23.50
2018-08-30T00:03:34.486Z,23.50
2018-08-30T00:04:06.364Z,23.50
2018-08-30T00:04:38.225Z,23.50
2018-08-30T00:05:10.097Z,23.50
2018-08-30T00:05:42.104Z,23.50
2018-08-30T00:06:13.881Z,23.60
2018-08-30T00:06:45.736Z,23.50
2018-08-30T00:07:17.736Z,23.50
2018-08-30T00:07:49.593Z,23.50
2018-08-30T00:08:21.658Z,23.40
2018-08-30T00:08:53.448Z,23.50
2018-08-30T00:09:25.317Z,23.40
2018-08-30T00:09:57.196Z,23.40
2018-08-30T00:10:29.017Z,23.40
2018-08-30T00:11:00.919Z,23.40
2018-08-30T00:11:32.740Z,23.40
2018-08-30T00:12:04.553Z,23.30
2018-08-30T00:12:36.365Z,23.40
2018-08-30T00:13:08.217Z,23.40
2018-08-30T00:13:40.105Z,23.40
2018-08-30T00:14:11.964Z,23.40
2018-08-30T00:14:43.803Z,23.40
2018-08-30T00:15:15.840Z,23.40
2018-08-30T00:15:47.888Z,23.50
2018-08-30T00:16:19.693Z,23.40
2018-08-30T00:16:51.544Z,23.40
2018-08-30T00:17:23.378Z,23.40
2018-08-30T00:17:55.242Z,23.40
2018-08-30T00:18:27.204Z,23.40
2018-08-30T00:18:59.123Z,23.40
2018-08-30T00:19:30.944Z,23.40
2018-08-30T00:20:02.872Z,23.40
2018-08-30T00:20:34.744Z,23.40
2018-08-30T00:21:06.656Z,23.40
2018-08-30T00:21:38.611Z,23.40
2018-08-30T00:22:10.379Z,23.40
2018-08-30T00:22:42.336Z,23.40
2018-08-30T00:23:14.173Z,23.40
2018-08-30T00:23:46.141Z,23.40
2018-08-30T00:24:17.945Z,23.40
2018-08-30T00:24:49.729Z,23.40
2018-08-30T00:25:21.594Z,23.40
2018-08-30T00:25:53.553Z,23.40
2018-08-30T00:26:25.452Z,23.40
2018-08-30T00:26:57.529Z,23.30
2018-08-30T00:27:29.444Z,23.30
2018-08-30T00:28:01.340Z,23.30
2018-08-30T00:28:33.152Z,23.20
2018-08-30T00:29:04.954Z,23.20
2018-08-30T00:29:36.795Z,23.20
2018-08-30T00:30:08.926Z,23.20
2018-08-30T00:30:40.742Z,23.20
2018-08-30T00:31:12.765Z,23.20
2018-08-30T00:31:44.628Z,23.10
2018-08-30T00:32:16.470Z,23.10
2018-08-30T00:32:48.285Z,23.10
2018-08-30T00:33:20.164Z,23.10
2018-08-30T00:33:52.015Z,23.10
2018-08-30T00:34:23.807Z,23.10
2018-08-30T00:34:55.704Z,23.10
2018-08-30T00:35:27.592Z,23.20
2018-08-30T00:35:59.467Z,23.20
2018-08-30T00:36:31.275Z,23.20
2018-08-30T00:37:03.077Z,23.20
2018-08-30T00:37:35.046Z,23.30
2018-08-30T00:38:06.867Z,23.30
2018-08-30T00:38:38.667Z,23.30
2018-08-30T00:39:10.484Z,23.20
2018-08-30T00:39:42.267Z,23.20
2018-08-30T00:40:14.189Z,23.20
2018-08-30T00:40:46.126Z,23.20
2018-08-30T00:41:18.102Z,23.20
2018-08-30T00:41:50.064Z,23.20
2018-08-30T00:42:22.047Z,23.10
2018-08-30T00:42:53.848Z,23.10
2018-08-30T00:43:25.736Z,23.10
2018-08-30T00:43:57.519Z,23.10
2018-08-30T00:44:29.324Z,23.10
2018-08-30T00:45:01.146Z,23.10
2018-08-30T00:45:33.197Z,23.10
2018-08-30T00:46:05.084Z,23.10
2018-08-30T00:46:36.944Z,23.00
2018-08-30T00:47:09.009Z,23.00
2018-08-30T00:47:41.175Z,23.00
2018-08-30T00:48:13.029Z,22.90
2018-08-30T00:48:44.938Z,22.90
2018-08-30T00:49:17.007Z,22.90
2018-08-30T00:49:49.016Z,22.90
2018-08-30T00:50:20.828Z,22.90
2018-08-30T00:50:52.785Z,22.90
2018-08-30T00:51:24.732Z,23.00
2018-08-30T00:51:56.579Z,23.00
2018-08-30T00:52:28.395Z,23.00
2018-08-30T00:53:00.434Z,23.00
2018-08-30T00:53:32.311Z,23.00
2018-08-30T00:54:04.106Z,23.00
2018-08-30T00:54:36.040Z,23.00
2018-08-30T00:55:07.941Z,23.00
2018-08-30T00:55:39.807Z,23.00
2018-08-30T00:56:11.629Z,23.00
2018-08-30T00:56:43.451Z,23.00
2018-08-30T00:57:15.323Z,22.90
2018-08-30T00:57:47.159Z,23.00
2018-08-30T00:58:18.974Z,23.10
2018-08-30T00:58:50.808Z,23.10
2018-08-30T00:59:22.787Z,23.10
2018-08-30T00:59:54.580Z,23.10
2018-08-30T01:00:26.627Z,23.10
2018-08-30T01:00:58.516Z,23.10
2018-08-30T01:01:30.578Z,23.10
2018-08-30T01:02:02.507Z,23.10
2018-08-30T01:02:34.604Z,23.10
2018-08-30T01:03:06.585Z,23.10
2018-08-30T01:03:38.506Z,23.10
2018-08-30T01:04:10.400Z,23.10
2018-08-30T01:04:42.245Z,23.10
2018-08-30T01:05:14.085Z,23.10
2018-08-30T01:05:45.908Z,23.10
2018-08-30T01:06:17.795Z,23.20
2018-08-30T01:06:49.769Z,23.20
2018-08-30T01:07:21.859Z,23.20
2018-08-30T01:07:53.646Z,23.10
2018-08-30T01:08:25.617Z,23.10
2018-08-30T01:08:57.693Z,23.00
2018-08-30T01:09:29.550Z,22.90
2018-08-30T01:10:01.687Z,22.90
2018-08-30T01:10:33.555Z,22.90
2018-08-30T01:11:05.396Z,22.90
2018-08-30T01:11:37.465Z,22.90
2018-08-30T01:12:09.434Z,22.90
2018-08-30T01:12:41.407Z,22.90
2018-08-30T01:13:13.476Z,22.90
2018-08-30T01:13:45.448Z,22.80
2018-08-30T01:14:17.245Z,22.80
2018-08-30T01:14:49.055Z,22.90
2018-08-30T01:15:20.976Z,22.90
2018-08-30T01:15:52.759Z,22.90
2018-08-30T01:16:24.708Z,22.90
2018-08-30T01:16:56.514Z,22.80
2018-08-30T01:17:28.285Z,22.80
2018-08-30T01:18:00.087Z,22.80
2018-08-30T01:18:31.905Z,22.80
2018-08-30T01:19:03.700Z,22.80
2018-08-30T01:19:35.663Z,22.80
2018-08-30T01:20:07.439Z,22.80
2018-08-30T01:20:39.400Z,22.80
2018-08-30T01:21:11.207Z,22.80
2018-08-30T01:21:42.994Z,22.80
2018-08-30T01:22:14.797Z,22.80
2018-08-30T01:22:46.645Z,22.80
2018-08-30T01:23:18.684Z,22.80
2018-08-30T01:23:50.737Z,22.80
2018-08-30T01:24:22.547Z,22.70
2018-08-30T01:24:54.508Z,22.70
2018-08-30T01:25:26.497Z,22.70
2018-08-30T01:25:58.308Z,22.70
2018-08-30T01:26:30.073Z,22.70
2018-08-30T01:27:01.909Z,22.70
2018-08-30T01:27:33.739Z,22.70
2018-08-30T01:28:05.665Z,22.70
2018-08-30T01:28:37.556Z,22.70
2018-08-30T01:29:09.322Z,22.70
2018-08-30T01:29:41.203Z,22.60
2018-08-30T01:30:13.198Z,22.70
2018-08-30T01:30:45.164Z,22.80
2018-08-30T01:31:17.103Z,22.80
2018-08-30T01:31:49.142Z,22.80
2018-08-30T01:32:21.104Z,22.80
2018-08-30T01:32:53.032Z,22.80
2018-08-30T01:33:24.963Z,22.80
2018-08-30T01:33:56.875Z,22.80
2018-08-30T01:34:28.708Z,22.80
2018-08-30T01:35:00.741Z,22.80
2018-08-30T01:35:32.540Z,22.80
2018-08-30T01:36:04.521Z,22.80
2018-08-30T01:36:36.457Z,22.70
2018-08-30T01:37:08.340Z,22.70
2018-08-30T01:37:40.259Z,22.70
2018-08-30T01:38:12.120Z,22.70
2018-08-30T01:38:44.058Z,22.80
2018-08-30T01:39:16.027Z,22.70
2018-08-30T01:39:47.854Z,22.80
2018-08-30T01:40:19.819Z,22.80
2018-08-30T01:40:51.609Z,22.80
2018-08-30T01:41:23.682Z,22.80
2018-08-30T01:41:55.575Z,22.70
2018-08-30T01:42:27.396Z,22.80
2018-08-30T01:42:59.212Z,22.80
2018-08-30T01:43:31.125Z,22.70
2018-08-30T01:44:02.958Z,22.70
2018-08-30T01:44:34.915Z,22.70
2018-08-30T01:45:06.795Z,22.70
2018-08-30T01:45:38.661Z,22.70
2018-08-30T01:46:10.509Z,22.70
2018-08-30T01:46:42.362Z,22.70
2018-08-30T01:47:14.476Z,22.70
2018-08-30T01:47:46.293Z,22.70
2018-08-30T01:48:18.076Z,22.70
2018-08-30T01:48:49.893Z,22.60
2018-08-30T01:49:21.680Z,22.60
2018-08-30T01:49:53.523Z,22.60
2018-08-30T01:50:25.527Z,22.60
2018-08-30T01:50:57.788Z,22.70
2018-08-30T01:51:29.621Z,22.70
2018-08-30T01:52:01.443Z,22.70
2018-08-30T01:52:33.264Z,22.70
2018-08-30T01:53:05.062Z,22.70
2018-08-30T01:53:36.904Z,22.70
2018-08-30T01:54:08.868Z,22.80
2018-08-30T01:54:40.751Z,22.70
2018-08-30T01:55:12.761Z,22.80
2018-08-30T01:55:44.839Z,22.80
2018-08-30T01:56:16.840Z,22.70
2018-08-30T01:56:48.672Z,22.70
2018-08-30T01:57:20.532Z,22.70
2018-08-30T01:57:52.412Z,22.80
2018-08-30T01:58:24.407Z,22.80
2018-08-30T01:58:56.398Z,22.70
2018-08-30T01:59:28.177Z,22.70
2018-08-30T02:00:00.187Z,22.80
2018-08-30T02:00:32.080Z,22.80
2018-08-30T02:01:03.906Z,22.70
2018-08-30T02:01:35.770Z,22.80
2018-08-30T02:02:07.582Z,22.80
2018-08-30T02:02:39.435Z,22.80
2018-08-30T02:03:11.568Z,22.80
2018-08-30T02:03:43.476Z,22.80
2018-08-30T02:04:15.403Z,22.80
2018-08-30T02:04:47.234Z,22.90
2018-08-30T02:05:19.067Z,22.90
2018-08-30T02:05:50.858Z,22.80
2018-08-30T02:06:22.905Z,22.80
2018-08-30T02:06:54.816Z,22.80
2018-08-30T02:07:26.864Z,22.80
2018-08-30T02:07:58.843Z,22.70
2018-08-30T02:08:30.618Z,22.70
2018-08-30T02:09:02.563Z,22.70
2018-08-30T02:09:34.357Z,22.70
2018-08-30T02:10:06.154Z,22.70
2018-08-30T02:10:38.033Z,22.80
2018-08-30T02:11:10.036Z,22.70
2018-08-30T02:11:42.076Z,22.70
2018-08-30T02:12:13.982Z,22.80
2018-08-30T02:12:45.902Z,22.80
2018-08-30T02:13:17.921Z,22.80
2018-08-30T02:13:50.042Z,22.80
2018-08-30T02:14:21.854Z,22.80
2018-08-30T02:14:53.691Z,22.90
2018-08-30T02:15:25.563Z,22.80
2018-08-30T02:15:57.524Z,22.80
2018-08-30T02:16:29.410Z,22.80
2018-08-30T02:17:01.449Z,22.80
2018-08-30T02:17:33.297Z,22.90
2018-08-30T02:18:05.106Z,22.90
2018-08-30T02:18:36.933Z,22.90
2018-08-30T02:19:08.780Z,22.90
2018-08-30T02:19:40.840Z,22.90
2018-08-30T02:20:12.908Z,22.90
2018-08-30T02:20:44.762Z,22.90
2018-08-30T02:21:16.549Z,22.90
2018-08-30T02:21:48.389Z,22.90
2018-08-30T02:22:20.182Z,22.90
2018-08-30T02:22:52.039Z,22.90
2018-08-30T02:23:23.859Z,23.00
2018-08-30T02:23:56.138Z,23.00
2018-08-30T02:24:27.941Z,23.00
2018-08-30T02:24:59.752Z,23.10
2018-08-30T02:25:31.614Z,23.10
2018-08-30T02:26:03.491Z,23.10
2018-08-30T02:26:35.316Z,23.00
2018-08-30T02:27:07.219Z,23.00
2018-08-30T02:27:39.127Z,23.00
2018-08-30T02:28:11.147Z,23.00
2018-08-30T02:28:42.999Z,23.00
2018-08-30T02:29:15.098Z,23.00
2018-08-30T02:29:46.873Z,23.00
2018-08-30T02:30:18.658Z,23.00
2018-08-30T02:30:50.545Z,23.00
2018-08-30T02:31:22.385Z,23.10
2018-08-30T02:31:54.304Z,23.10
2018-08-30T02:32:26.171Z,23.10
2018-08-30T02:32:57.993Z,23.10
2018-08-30T02:33:29.795Z,23.10
2018-08-30T02:34:01.625Z,23.10
2018-08-30T02:34:33.432Z,23.00
2018-08-30T02:35:05.272Z,22.90
2018-08-30T02:35:37.046Z,23.00
2018-08-30T02:36:08.929Z,23.00
2018-08-30T02:36:40.823Z,23.00
2018-08-30T02:37:12.693Z,23.00
2018-08-30T02:37:44.532Z,23.00
2018-08-30T02:38:16.424Z,23.00
2018-08-30T02:38:48.344Z,23.00
2018-08-30T02:39:20.376Z,23.00
2018-08-30T02:39:52.264Z,23.00
2018-08-30T02:40:24.468Z,23.00
2018-08-30T02:40:56.315Z,23.00
2018-08-30T02:41:28.376Z,23.00
2018-08-30T02:42:00.387Z,23.10
2018-08-30T02:42:32.260Z,23.10
2018-08-30T02:43:04.058Z,23.10
2018-08-30T02:43:36.068Z,23.10
2018-08-30T02:44:07.904Z,23.10
2018-08-30T02:44:39.763Z,23.10
2018-08-30T02:45:11.637Z,23.00
2018-08-30T02:45:43.600Z,23.00
2018-08-30T02:46:15.548Z,22.90
2018-08-30T02:46:47.428Z,22.90
2018-08-30T02:47:19.412Z,22.90
2018-08-30T02:47:51.569Z,22.90
2018-08-30T02:48:23.388Z,22.90
2018-08-30T02:48:55.266Z,22.90
2018-08-30T02:49:27.287Z,23.00
2018-08-30T02:49:59.139Z,23.00
2018-08-30T02:50:31.209Z,22.90
2018-08-30T02:51:03.089Z,22.90
2018-08-30T02:51:34.920Z,22.90
2018-08-30T02:52:06.720Z,22.90
2018-08-30T02:52:38.618Z,22.90
2018-08-30T02:53:10.758Z,22.90
2018-08-30T02:53:42.605Z,22.90
2018-08-30T02:54:14.529Z,22.80
2018-08-30T02:54:46.310Z,22.80
2018-08-30T02:55:18.120Z,22.70
2018-08-30T02:55:49.920Z,22.70
2018-08-30T02:56:21.855Z,22.70
2018-08-30T02:56:53.676Z,22.80
2018-08-30T02:57:25.471Z,22.80
2018-08-30T02:57:57.305Z,22.70
2018-08-30T02:58:29.225Z,22.70
2018-08-30T02:59:01.271Z,22.70
2018-08-30T02:59:33.062Z,22.70
2018-08-30T03:00:04.993Z,22.70
2018-08-30T03:00:36.885Z,22.70
2018-08-30T03:01:08.667Z,22.70
2018-08-30T03:01:40.503Z,22.70
2018-08-30T03:02:12.372Z,22.70
2018-08-30T03:02:44.575Z,22.70
2018-08-30T03:03:16.362Z,22.70
2018-08-30T03:03:48.184Z,22.70
2018-08-30T03:04:20.296Z,22.70
2018-08-30T03:04:52.232Z,22.70
2018-08-30T03:05:24.162Z,22.70
2018-08-30T03:05:56.194Z,22.80
2018-08-30T03:06:28.092Z,22.70
2018-08-30T03:06:59.926Z,22.70
2018-08-30T03:07:31.963Z,22.70
2018-08-30T03:08:03.820Z,22.70
2018-08-30T03:08:35.743Z,22.70
2018-08-30T03:09:07.554Z,22.60
2018-08-30T03:09:39.496Z,22.60
2018-08-30T03:10:11.346Z,22.60
2018-08-30T03:10:43.195Z,22.50
2018-08-30T03:11:15.050Z,22.50
2018-08-30T03:11:47.018Z,22.50
2018-08-30T03:12:19.149Z,22.50
2018-08-30T03:12:51.012Z,22.50
2018-08-30T03:13:22.786Z,22.50
2018-08-30T03:13:54.585Z,22.50
2018-08-30T03:14:26.490Z,22.50
2018-08-30T03:14:58.464Z,22.50
2018-08-30T03:15:30.336Z,22.50
2018-08-30T03:16:02.147Z,22.50
2018-08-30T03:16:34.044Z,22.50
2018-08-30T03:17:05.956Z,22.50
2018-08-30T03:17:37.868Z,22.50
2018-08-30T03:18:09.709Z,22.50
2018-08-30T03:18:41.632Z,22.50
2018-08-30T03:19:13.577Z,22.50
2018-08-30T03:19:45.766Z,22.50
2018-08-30T03:20:17.714Z,22.40
2018-08-30T03:20:49.524Z,22.40
2018-08-30T03:21:21.382Z,22.40
2018-08-30T03:21:53.187Z,22.50
2018-08-30T03:22:25.037Z,22.40
2018-08-30T03:22:57.060Z,22.40
2018-08-30T03:23:29.165Z,22.40
2018-08-30T03:24:01.209Z,22.40
2018-08-30T03:24:32.960Z,22.40
2018-08-30T03:25:04.741Z,22.40
2018-08-30T03:25:36.669Z,22.30
2018-08-30T03:26:08.696Z,22.30
2018-08-30T03:26:40.505Z,22.40
2018-08-30T03:27:12.318Z,22.40
2018-08-30T03:27:44.247Z,22.50
2018-08-30T03:28:16.144Z,22.50
2018-08-30T03:28:47.936Z,22.60
2018-08-30T03:29:19.727Z,22.60
2018-08-30T03:29:51.659Z,22.60
2018-08-30T03:30:23.672Z,22.50
2018-08-30T03:30:55.700Z,22.50
2018-08-30T03:31:27.771Z,22.50
2018-08-30T03:31:59.731Z,22.40
2018-08-30T03:32:31.558Z,22.40
2018-08-30T03:33:03.400Z,22.40
2018-08-30T03:33:35.253Z,22.40
2018-08-30T03:34:07.153Z,22.40
2018-08-30T03:34:39.170Z,22.40
2018-08-30T03:35:11.011Z,22.40
2018-08-30T03:35:42.816Z,22.30
2018-08-30T03:36:14.679Z,22.40
2018-08-30T03:36:46.488Z,22.40
2018-08-30T03:37:18.312Z,22.40
2018-08-30T03:37:50.259Z,22.30
2018-08-30T03:38:22.108Z,22.40
2018-08-30T03:38:54.039Z,22.40
2018-08-30T03:39:26.020Z,22.40
2018-08-30T03:39:57.879Z,22.40
2018-08-30T03:40:29.660Z,22.50
2018-08-30T03:41:01.490Z,22.40
2018-08-30T03:41:33.337Z,22.40
2018-08-30T03:42:05.150Z,22.40
2018-08-30T03:42:37.150Z,22.40
2018-08-30T03:43:09.027Z,22.40
2018-08-30T03:43:40.828Z,22.40
2018-08-30T03:44:12.640Z,22.40
2018-08-30T03:44:44.433Z,22.40
2018-08-30T03:45:16.236Z,22.30
2018-08-30T03:45:48.285Z,22.40
2018-08-30T03:46:20.199Z,22.30
2018-08-30T03:46:52.079Z,22.30
2018-08-30T03:47:24.148Z,22.30
2018-08-30T03:47:55.929Z,22.30
2018-08-30T03:48:27.840Z,22.30
2018-08-30T03:48:59.722Z,22.40
2018-08-30T03:49:31.750Z,22.40
2018-08-30T03:50:03.572Z,22.40
2018-08-30T03:50:35.398Z,22.40
2018-08-30T03:51:07.241Z,22.40
2018-08-30T03:51:39.075Z,22.30
2018-08-30T03:52:10.920Z,22.30
2018-08-30T03:52:42.741Z,22.30
2018-08-30T03:53:14.541Z,22.30
2018-08-30T03:53:46.358Z,22.30
2018-08-30T03:54:18.184Z,22.30
2018-08-30T03:54:49.993Z,22.30
2018-08-30T03:55:21.871Z,22.30
2018-08-30T03:55:53.722Z,22.30
2018-08-30T03:56:25.522Z,22.30
2018-08-30T03:56:57.323Z,22.20
2018-08-30T03:57:29.212Z,22.20
2018-08-30T03:58:00.994Z,22.30
2018-08-30T03:58:32.782Z,22.30
2018-08-30T03:59:04.553Z,22.40
2018-08-30T03:59:36.366Z,22.40
2018-08-30T04:00:08.178Z,22.50
2018-08-30T04:00:39.979Z,22.60
2018-08-30T04:01:11.773Z,22.60
2018-08-30T04:01:43.669Z,22.70
2018-08-30T04:02:15.523Z,22.70
2018-08-30T04:02:47.505Z,22.70
2018-08-30T04:03:19.383Z,22.70
2018-08-30T04:03:51.235Z,22.80
2018-08-30T04:04:23.080Z,22.80
2018-08-30T04:04:55.187Z,22.80
2018-08-30T04:05:27.015Z,22.80
2018-08-30T04:05:59.245Z,22.80
2018-08-30T04:06:31.107Z,22.80
2018-08-30T04:07:02.943Z,22.80
2018-08-30T04:07:34.775Z,22.80
2018-08-30T04:08:06.725Z,22.80
2018-08-30T04:08:38.535Z,22.80
2018-08-30T04:09:10.307Z,22.80
2018-08-30T04:09:42.116Z,22.90
2018-08-30T04:10:13.944Z,22.90
2018-08-30T04:10:45.746Z,22.90
2018-08-30T04:11:17.744Z,22.90
2018-08-30T04:11:49.552Z,22.90
2018-08-30T04:12:21.384Z,22.90
2018-08-30T04:12:53.214Z,22.90
2018-08-30T04:13:25.120Z,22.90
2018-08-30T04:13:57.224Z,22.90
2018-08-30T04:14:29.094Z,22.90
2018-08-30T04:15:01.011Z,22.80
2018-08-30T04:15:32.883Z,22.90
2018-08-30T04:16:04.705Z,22.80
2018-08-30T04:16:36.578Z,22.80
2018-08-30T04:17:08.503Z,22.80
2018-08-30T04:17:40.315Z,22.80
2018-08-30T04:18:12.324Z,22.80
2018-08-30T04:18:44.106Z,22.80
2018-08-30T04:19:16.150Z,22.70
2018-08-30T04:19:48.024Z,22.70
2018-08-30T04:20:19.936Z,22.60
2018-08-30T04:20:51.955Z,22.60
2018-08-30T04:21:23.740Z,22.50
2018-08-30T04:21:55.682Z,22.40
2018-08-30T04:22:27.514Z,22.40
2018-08-30T04:22:59.365Z,22.40
2018-08-30T04:23:31.218Z,22.40
2018-08-30T04:24:03.156Z,22.40
2018-08-30T04:24:34.965Z,22.40
2018-08-30T04:25:06.806Z,22.30
2018-08-30T04:25:38.638Z,22.30
2018-08-30T04:26:10.479Z,22.30
2018-08-30T04:26:42.325Z,22.30
2018-08-30T04:27:14.227Z,22.40
2018-08-30T04:27:46.125Z,22.40
2018-08-30T04:28:17.952Z,22.50
2018-08-30T04:28:49.781Z,22.50
2018-08-30T04:29:21.649Z,22.60
2018-08-30T04:29:53.623Z,22.60
2018-08-30T04:30:25.614Z,22.70
2018-08-30T04:30:57.426Z,22.70
2018-08-30T04:31:29.230Z,22.70
2018-08-30T04:32:01.238Z,22.70
2018-08-30T04:32:33.066Z,22.70
2018-08-30T04:33:04.910Z,22.70
2018-08-30T04:33:36.736Z,22.70
2018-08-30T04:34:08.593Z,22.70
2018-08-30T04:34:40.456Z,22.60
2018-08-30T04:35:12.268Z,22.60
2018-08-30T04:35:44.295Z,22.60
2018-08-30T04:36:16.406Z,22.60
2018-08-30T04:36:48.422Z,22.60
2018-08-30T04:37:20.603Z,22.60
2018-08-30T04:37:52.669Z,22.50
2018-08-30T04:38:24.557Z,22.60
2018-08-30T04:38:56.475Z,22.60
2018-08-30T04:39:28.320Z,22.60
2018-08-30T04:40:00.259Z,22.60
2018-08-30T04:40:32.173Z,22.60
2018-08-30T04:41:04.177Z,22.60
2018-08-30T04:41:36.145Z,22.60
2018-08-30T04:42:08.088Z,22.60
2018-08-30T04:42:39.935Z,22.60
2018-08-30T04:43:11.932Z,22.60
2018-08-30T04:43:43.857Z,22.60
2018-08-30T04:44:15.921Z,22.60
2018-08-30T04:44:47.756Z,22.60
2018-08-30T04:45:19.637Z,22.60
2018-08-30T04:45:51.514Z,22.70
2018-08-30T04:46:23.339Z,22.60
2018-08-30T04:46:55.167Z,22.60
2018-08-30T04:47:27.018Z,22.60
2018-08-30T04:47:58.947Z,22.60
2018-08-30T04:48:30.726Z,22.60
2018-08-30T04:49:02.553Z,22.60
2018-08-30T04:49:34.509Z,22.60
2018-08-30T04:50:06.464Z,22.60
2018-08-30T04:50:38.610Z,22.60
2018-08-30T04:51:10.658Z,22.60
2018-08-30T04:51:42.458Z,22.60
2018-08-30T04:52:14.276Z,22.60
2018-08-30T04:52:46.181Z,22.60
2018-08-30T04:53:18.064Z,22.60
2018-08-30T04:53:50.081Z,22.60
2018-08-30T04:54:21.930Z,22.70
2018-08-30T04:54:53.912Z,22.60
2018-08-30T04:55:25.793Z,22.60
2018-08-30T04:55:57.760Z,22.60
2018-08-30T04:56:29.700Z,22.60
2018-08-30T04:57:02.278Z,22.60
2018-08-30T04:57:34.279Z,22.60
2018-08-30T04:58:06.076Z,22.60
2018-08-30T04:58:37.976Z,22.60
2018-08-30T04:59:10.207Z,22.60
2018-08-30T04:59:42.042Z,22.60
2018-08-30T05:00:13.916Z,22.60
2018-08-30T05:00:45.695Z,22.70
2018-08-30T05:01:17.641Z,22.70
2018-08-30T05:01:49.535Z,22.70
2018-08-30T05:02:21.642Z,22.70
2018-08-30T05:02:53.493Z,22.70
2018-08-30T05:03:25.315Z,22.70
2018-08-30T05:03:57.091Z,22.70
2018-08-30T05:04:28.959Z,22.60
2018-08-30T05:05:00.768Z,22.70
2018-08-30T05:05:32.656Z,22.70
2018-08-30T05:06:04.482Z,22.70
2018-08-30T05:06:36.473Z,22.70
2018-08-30T05:07:08.305Z,22.70
2018-08-30T05:07:40.131Z,22.70
2018-08-30T05:08:11.980Z,22.70
2018-08-30T05:08:43.877Z,22.70
2018-08-30T05:09:15.673Z,22.80
2018-08-30T05:09:47.529Z,22.80
2018-08-30T05:10:19.337Z,22.80
2018-08-30T05:10:51.130Z,22.70
2018-08-30T05:11:23.137Z,22.80
2018-08-30T05:11:54.988Z,22.80
2018-08-30T05:12:26.839Z,22.70
2018-08-30T05:12:58.715Z,22.70
2018-08-30T05:13:30.837Z,22.70
2018-08-30T05:14:02.645Z,22.70
2018-08-30T05:14:34.505Z,22.70
2018-08-30T05:15:06.467Z,22.70
2018-08-30T05:15:38.362Z,22.80
2018-08-30T05:16:10.261Z,22.70
2018-08-30T05:16:42.060Z,22.80
2018-08-30T05:17:14.034Z,22.70
2018-08-30T05:17:45.973Z,22.80
2018-08-30T05:18:18.006Z,22.80
2018-08-30T05:18:49.816Z,22.80
2018-08-30T05:19:22.039Z,22.80
2018-08-30T05:19:53.949Z,22.80
2018-08-30T05:20:25.854Z,22.80
2018-08-30T05:20:57.659Z,22.80
2018-08-30T05:21:29.492Z,22.70
2018-08-30T05:22:01.322Z,22.70
2018-08-30T05:22:33.326Z,22.70
2018-08-30T05:23:05.201Z,22.70
2018-08-30T05:23:37.254Z,22.70
2018-08-30T05:24:09.031Z,22.80
2018-08-30T05:24:41.109Z,22.80
2018-08-30T05:25:12.941Z,22.70
2018-08-30T05:25:44.874Z,22.80
2018-08-30T05:26:16.949Z,22.80
2018-08-30T05:26:48.783Z,22.80
2018-08-30T05:27:20.601Z,22.80
2018-08-30T05:27:52.691Z,22.80
2018-08-30T05:28:24.728Z,22.80
2018-08-30T05:28:56.569Z,22.80
2018-08-30T05:29:28.514Z,22.80
2018-08-30T05:30:00.585Z,22.80
2018-08-30T05:30:32.384Z,22.80
2018-08-30T05:31:04.214Z,22.80
2018-08-30T05:31:36.009Z,22.80
2018-08-30T05:32:07.868Z,22.80
2018-08-30T05:32:39.814Z,22.80
2018-08-30T05:33:11.730Z,22.80
2018-08-30T05:33:43.623Z,22.80
2018-08-30T05:34:15.484Z,22.80
2018-08-30T05:34:47.347Z,22.80
2018-08-30T05:35:19.187Z,22.80
2018-08-30T05:35:51.142Z,22.80
2018-08-30T05:36:23.370Z,22.80
2018-08-30T05:36:55.341Z,22.80
2018-08-30T05:37:27.167Z,22.80
2018-08-30T05:37:59.203Z,22.70
2018-08-30T05:38:31.013Z,22.80
2018-08-30T05:39:03.102Z,22.80
2018-08-30T05:39:34.950Z,22.80
2018-08-30T05:40:06.793Z,22.80
2018-08-30T05:40:38.649Z,22.80
2018-08-30T05:41:10.542Z,22.80
2018-08-30T05:41:42.356Z,22.80
2018-08-30T05:42:14.250Z,22.80
2018-08-30T05:42:46.219Z,22.70
2018-08-30T05:43:18.050Z,22.70
2018-08-30T05:43:49.901Z,22.70
2018-08-30T05:44:21.954Z,22.70
2018-08-30T05:44:54.361Z,22.70
2018-08-30T05:45:26.251Z,22.70
2018-08-30T05:45:58.104Z,22.70
2018-08-30T05:46:30.081Z,22.70
2018-08-30T05:47:02.251Z,22.80
2018-08-30T05:47:34.026Z,22.70
2018-08-30T05:48:05.851Z,22.70
2018-08-30T05:48:37.703Z,22.70
2018-08-30T05:49:09.910Z,22.70
2018-08-30T05:49:41.763Z,22.70
2018-08-30T05:50:13.644Z,22.70
2018-08-30T05:50:45.476Z,22.70
2018-08-30T05:51:17.532Z,22.70
2018-08-30T05:51:49.340Z,22.70
2018-08-30T05:52:21.191Z,22.70
2018-08-30T05:52:53.131Z,22.70
2018-08-30T05:53:25.111Z,22.70
2018-08-30T05:53:56.972Z,22.70
2018-08-30T05:54:29.015Z,22.70
2018-08-30T05:55:00.990Z,22.70
2018-08-30T05:55:33.015Z,22.70
2018-08-30T05:56:04.833Z,22.70
2018-08-30T05:56:36.918Z,22.70
2018-08-30T05:57:08.922Z,22.70
2018-08-30T05:57:40.711Z,22.70
2018-08-30T05:58:12.581Z,22.70
2018-08-30T05:58:44.441Z,22.70
2018-08-30T05:59:16.362Z,22.60
2018-08-30T05:59:48.168Z,22.70
2018-08-30T06:00:19.970Z,22.70
2018-08-30T06:00:51.864Z,22.70
2018-08-30T06:01:23.742Z,22.70
2018-08-30T06:01:55.603Z,22.70
2018-08-30T06:02:27.652Z,22.70
2018-08-30T06:02:59.530Z,22.70
2018-08-30T06:03:31.365Z,22.70
2018-08-30T06:04:03.175Z,22.70
2018-08-30T06:04:35.085Z,22.70
2018-08-30T06:05:06.920Z,22.70
2018-08-30T06:05:38.719Z,22.70
2018-08-30T06:06:10.641Z,22.70
2018-08-30T06:06:42.673Z,22.70
2018-08-30T06:07:14.668Z,22.70
2018-08-30T06:07:46.778Z,22.70
2018-08-30T06:08:18.712Z,22.70
2018-08-30T06:08:50.794Z,22.70
2018-08-30T06:09:22.746Z,22.70
2018-08-30T06:09:54.676Z,22.70
2018-08-30T06:10:26.668Z,22.70
2018-08-30T06:10:58.470Z,22.70
2018-08-30T06:11:30.275Z,22.70
2018-08-30T06:12:02.118Z,22.70
2018-08-30T06:12:33.914Z,22.70
2018-08-30T06:13:05.814Z,22.70
2018-08-30T06:13:37.820Z,22.70
2018-08-30T06:14:09.629Z,22.70
2018-08-30T06:14:41.615Z,22.70
2018-08-30T06:15:13.393Z,22.70
2018-08-30T06:15:45.264Z,22.70
2018-08-30T06:16:17.056Z,22.70
2018-08-30T06:16:48.933Z,22.70
2018-08-30T06:17:20.755Z,22.70
2018-08-30T06:17:52.812Z,22.70
2018-08-30T06:18:24.717Z,22.70
2018-08-30T06:18:56.575Z,22.70
2018-08-30T06:19:28.551Z,22.70
2018-08-30T06:20:00.513Z,22.70
2018-08-30T06:20:32.478Z,22.70
2018-08-30T06:21:04.393Z,22.70
2018-08-30T06:21:36.287Z,22.70
2018-08-30T06:22:08.223Z,22.70
2018-08-30T06:22:40.043Z,22.70
2018-08-30T06:23:12.080Z,22.70
2018-08-30T06:23:43.997Z,22.70
2018-08-30T06:24:15.906Z,22.70
2018-08-30T06:24:47.824Z,22.70
2018-08-30T06:25:19.681Z,22.70
2018-08-30T06:25:51.558Z,22.70
2018-08-30T06:26:23.504Z,22.70
2018-08-30T06:26:55.455Z,22.70
2018-08-30T06:27:27.457Z,22.70
2018-08-30T06:27:59.425Z,22.80
2018-08-30T06:28:31.302Z,22.80
2018-08-30T06:29:03.214Z,22.80
2018-08-30T06:29:35.066Z,22.70
2018-08-30T06:30:06.926Z,22.70
2018-08-30T06:30:38.796Z,22.70
2018-08-30T06:31:10.655Z,22.70
2018-08-30T06:31:42.636Z,22.70
2018-08-30T06:32:14.557Z,22.70
2018-08-30T06:32:46.435Z,22.70
2018-08-30T06:33:18.421Z,22.70
2018-08-30T06:33:50.233Z,22.80
2018-08-30T06:34:22.026Z,22.80
2018-08-30T06:34:54.107Z,22.80
2018-08-30T06:35:26.117Z,22.70
2018-08-30T06:35:57.968Z,22.70
2018-08-30T06:36:29.767Z,22.70
2018-08-30T06:37:01.628Z,22.70
2018-08-30T06:37:33.478Z,22.70
2018-08-30T06:38:05.331Z,22.80
2018-08-30T06:38:37.199Z,22.70
2018-08-30T06:39:09.196Z,22.70
2018-08-30T06:39:41.095Z,22.80
2018-08-30T06:40:13.078Z,22.80
2018-08-30T06:40:44.887Z,22.70
2018-08-30T06:41:16.948Z,22.70
2018-08-30T06:41:48.819Z,22.70
2018-08-30T06:42:20.826Z,22.70
2018-08-30T06:42:52.758Z,22.70
2018-08-30T06:43:24.670Z,22.70
2018-08-30T06:43:56.548Z,22.70
2018-08-30T06:44:28.619Z,22.70
2018-08-30T06:45:00.764Z,22.70
2018-08-30T06:45:32.718Z,22.70
2018-08-30T06:46:04.719Z,22.70
2018-08-30T06:46:36.569Z,22.70
2018-08-30T06:47:08.534Z,22.70
2018-08-30T06:47:40.583Z,22.70
2018-08-30T06:48:12.460Z,22.70
2018-08-30T06:48:44.346Z,22.70
2018-08-30T06:49:16.344Z,22.70
2018-08-30T06:49:48.261Z,22.70
2018-08-30T06:50:20.154Z,22.70
2018-08-30T06:50:52.088Z,22.70